Time;durP1;ratioP1;P1;durP2;ratioP2;P2;SDS_P1;SDS_P2;PMS_P1;PMS_P2;Temp;Humidity;BMP_temperature;BMP_pressure;BME280_temperature;BME280_humidity;BME280_pressure;Samples;Min_cycle;Max_cycle;Signal;HPM_P1;HPM_P2
2023/05/05 00:01:23;;;;;;;34.00;11.70;;;;;;;8.70;63.97;100752.86;106973;1273;25705;-61
2023/05/05 00:03:54;;;;;;;27.30;9.40;;;;;;;8.59;64.61;100756.69;106997;1270;22538;-61
2023/05/05 00:06:27;;;;;;;27.80;9.90;;;;;;;8.53;64.54;100755.61;106919;1266;25290;-60
2023/05/05 00:08:58;;;;;;;26.10;10.10;;;;;;;8.50;64.55;100749.53;106931;1273;25406;-59
2023/05/05 00:11:28;;;;;;;25.00;10.20;;;;;;;8.47;64.89;100749.16;106997;1266;25771;-60
2023/05/05 00:13:59;;;;;;;26.30;9.90;;;;;;;8.39;64.96;100750.01;106853;1277;22529;-62
2023/05/05 00:16:30;;;;;;;21.60;7.80;;;;;;;8.34;64.95;100754.88;110341;1277;22840;-60
2023/05/05 00:19:02;;;;;;;25.70;8.80;;;;;;;8.32;64.86;100753.89;110333;1270;22870;-61
2023/05/05 00:21:33;;;;;;;27.30;9.20;;;;;;;8.31;65.18;100754.29;110364;1270;22363;-59
2023/05/05 00:24:04;;;;;;;22.70;9.20;;;;;;;8.26;65.44;100751.83;110331;1270;22991;-61
2023/05/05 00:26:34;;;;;;;26.40;9.20;;;;;;;8.18;65.63;100750.95;110316;1270;22310;-61
2023/05/05 00:29:05;;;;;;;25.40;8.70;;;;;;;8.14;65.75;100753.31;110329;1270;22329;-62
2023/05/05 00:31:36;;;;;;;25.00;10.10;;;;;;;8.14;65.57;100750.73;110350;1270;22348;-61
2023/05/05 00:34:07;;;;;;;23.90;8.70;;;;;;;8.15;65.54;100748.82;110360;1272;22206;-61
2023/05/05 00:36:38;;;;;;;24.60;9.20;;;;;;;8.18;65.73;100748.81;110368;1271;22174;-61
2023/05/05 00:39:09;;;;;;;24.90;9.40;;;;;;;8.16;65.83;100743.55;110354;1272;22230;-61
2023/05/05 00:41:41;;;;;;;26.10;9.30;;;;;;;8.14;65.92;100741.48;110359;1270;22207;-61
2023/05/05 00:44:11;;;;;;;25.90;10.00;;;;;;;8.10;66.24;100736.31;110328;1276;22191;-63
2023/05/05 00:46:43;;;;;;;25.40;9.00;;;;;;;8.07;66.31;100738.61;110359;1270;22566;-61
2023/05/05 00:49:15;;;;;;;26.20;10.40;;;;;;;8.08;66.23;100736.45;110323;1277;22200;-61
2023/05/05 00:51:46;;;;;;;24.30;8.70;;;;;;;8.08;66.63;100733.82;110319;1270;22373;-58
2023/05/05 00:54:17;;;;;;;25.30;10.10;;;;;;;8.04;66.82;100737.46;110365;1272;22927;-62
2023/05/05 00:56:48;;;;;;;24.40;9.70;;;;;;;7.99;67.22;100739.46;110344;1270;22278;-60
2023/05/05 00:59:19;;;;;;;24.90;9.10;;;;;;;7.94;67.29;100744.83;110362;1269;22210;-61
2023/05/05 01:01:50;;;;;;;31.10;10.60;;;;;;;7.93;67.38;100739.92;110310;1270;22141;-61
2023/05/05 01:04:21;;;;;;;26.00;9.40;;;;;;;7.92;67.31;100739.86;110329;1277;22996;-60
2023/05/05 01:07:02;;;;;;;25.20;9.20;;;;;;;7.91;67.51;100740.38;110360;1268;23072;-60
2023/05/05 01:09:44;;;;;;;24.70;8.20;;;;;;;7.90;67.41;100736.44;110350;1262;22299;-60
2023/05/05 01:12:24;;;;;;;25.00;9.40;;;;;;;7.90;67.80;100735.82;110344;1271;22147;-62
2023/05/05 01:15:01;;;;;;;;;;;;;;;7.86;68.01;100732.45;110331;1270;22337;-60
2023/05/05 01:17:39;;;;;;;23.60;8.70;;;;;;;7.83;67.89;100729.86;110368;1271;22402;-61
2023/05/05 01:20:16;;;;;;;25.30;8.70;;;;;;;7.85;67.89;100728.05;110320;1262;22933;-60
2023/05/05 01:22:52;;;;;;;24.10;9.50;;;;;;;7.86;68.36;100724.41;110315;1270;22075;-61
2023/05/05 01:25:58;;;;;;;26.80;10.40;;;;;;;7.85;68.58;100722.80;110378;1277;22922;-59
2023/05/05 01:28:48;;;;;;;24.40;9.60;;;;;;;7.83;68.99;100719.10;110345;1277;23072;-61
2023/05/05 01:31:50;;;;;;;23.70;8.50;;;;;;;7.83;69.09;100715.39;110332;1277;22226;-61
2023/05/05 01:34:26;;;;;;;25.00;9.90;;;;;;;7.82;69.41;100710.45;107558;1277;22633;-61
2023/05/05 01:37:13;;;;;;;23.80;9.50;;;;;;;7.81;69.36;100710.94;110275;1271;22951;-61
2023/05/05 01:39:49;;;;;;;22.90;9.00;;;;;;;7.82;69.36;100707.64;110311;1271;22255;-59
2023/05/05 01:42:22;;;;;;;24.60;8.80;;;;;;;7.84;69.72;100712.05;110350;1272;22179;-60
2023/05/05 01:44:54;;;;;;;22.40;8.70;;;;;;;7.83;69.88;100712.93;110356;1273;23137;-61
2023/05/05 01:47:26;;;;;;;27.00;10.70;;;;;;;7.82;70.34;100713.19;107854;1271;26508;-59
2023/05/05 01:49:57;;;;;;;27.70;9.50;;;;;;;7.80;70.46;100713.27;106877;1270;24282;-60
2023/05/05 01:52:30;;;;;;;32.00;9.40;;;;;;;7.79;70.30;100709.03;106810;1277;23158;-60
2023/05/05 01:55:02;;;;;;;21.80;8.90;;;;;;;7.80;70.54;100707.41;108456;1262;22918;-58
2023/05/05 01:57:36;;;;;;;25.60;10.60;;;;;;;7.78;70.73;100702.30;106715;1262;25522;-59
2023/05/05 02:00:10;;;;;;;24.10;10.20;;;;;;;7.76;70.79;100702.55;110377;1262;22224;-60
2023/05/05 02:02:45;;;;;;;31.00;10.00;;;;;;;7.74;71.00;100704.11;110384;1272;22342;-63
2023/05/05 02:05:21;;;;;;;25.70;9.10;;;;;;;7.72;71.14;100704.23;110417;1262;22260;-61
2023/05/05 02:07:56;;;;;;;23.80;8.70;;;;;;;7.70;71.43;100708.36;110311;1276;22218;-62
2023/05/05 02:10:28;;;;;;;24.90;10.10;;;;;;;7.67;71.36;100707.77;110371;1277;22179;-61
2023/05/05 02:13:01;;;;;;;26.30;9.70;;;;;;;7.64;71.73;100709.54;110380;1269;22196;-61
2023/05/05 02:15:33;;;;;;;28.00;8.70;;;;;;;7.61;71.79;100709.89;110362;1270;22978;-60
2023/05/05 02:18:07;;;;;;;28.70;9.10;;;;;;;7.58;71.95;100706.09;109384;1270;22779;-61
2023/05/05 02:20:41;;;;;;;27.00;8.60;;;;;;;7.56;71.93;100707.66;110323;1273;22193;-62
2023/05/05 02:23:11;;;;;;;24.10;8.70;;;;;;;7.54;71.97;100707.11;110366;1271;23216;-60
2023/05/05 02:25:49;;;;;;;27.50;9.60;;;;;;;7.54;71.74;100705.02;110348;1270;22376;-60
2023/05/05 02:28:23;;;;;;;25.90;8.80;;;;;;;7.55;71.45;100699.90;110371;1271;22919;-61
2023/05/05 02:30:59;;;;;;;22.60;8.00;;;;;;;7.57;71.43;100704.11;110281;1262;22273;-61
2023/05/05 02:33:33;;;;;;;24.00;10.00;;;;;;;7.58;71.48;100706.27;110349;1271;22399;-61
2023/05/05 02:36:11;;;;;;;21.10;8.70;;;;;;;7.58;71.44;100707.34;110309;1272;22143;-60
2023/05/05 02:38:45;;;;;;;25.50;9.40;;;;;;;7.58;71.27;100704.96;110327;1272;22250;-60
2023/05/05 02:41:20;;;;;;;22.40;8.70;;;;;;;7.59;71.31;100703.43;110331;1272;22272;-60
2023/05/05 02:43:53;;;;;;;26.00;10.00;;;;;;;7.60;71.40;100702.91;110306;1270;22292;-61
2023/05/05 02:46:23;;;;;;;25.60;9.00;;;;;;;7.60;71.54;100705.93;110330;1277;22194;-61
2023/05/05 02:48:54;;;;;;;23.00;9.90;;;;;;;7.59;71.53;100703.50;108275;1270;22536;-59
2023/05/05 02:51:26;;;;;;;24.90;9.30;;;;;;;7.60;71.51;100702.66;107141;1277;22667;-59
2023/05/05 02:53:57;;;;;;;21.50;8.60;;;;;;;7.60;71.71;100702.20;110348;1270;23033;-59
2023/05/05 02:56:39;;;;;;;29.50;9.20;;;;;;;7.60;71.63;100705.23;110363;1268;22681;-60
2023/05/05 02:59:20;;;;;;;23.40;8.80;;;;;;;7.59;71.53;100707.33;110330;1272;22161;-60
2023/05/05 03:02:00;;;;;;;25.60;8.90;;;;;;;7.59;71.64;100705.11;109350;1262;22511;-60
2023/05/05 03:04:38;;;;;;;27.50;10.10;;;;;;;7.59;72.01;100705.34;110351;1277;23144;-62
2023/05/05 03:07:13;;;;;;;27.00;8.80;;;;;;;7.57;72.20;100709.06;110310;1277;22598;-61
2023/05/05 03:09:51;;;;;;;25.50;9.30;;;;;;;7.54;72.35;100709.32;110362;1268;22212;-60
2023/05/05 03:12:27;;;;;;;30.10;10.00;;;;;;;7.48;72.58;100709.91;110307;1271;22122;-62
2023/05/05 03:15:00;;;;;;;27.00;9.50;;;;;;;7.43;72.80;100710.33;110235;1274;22996;-61
2023/05/05 03:17:32;;;;;;;26.00;8.80;;;;;;;7.41;72.79;100712.45;110383;1270;22315;-61
2023/05/05 03:20:04;;;;;;;24.10;9.00;;;;;;;7.38;72.82;100719.07;110339;1270;22157;-60
2023/05/05 03:22:38;;;;;;;26.40;9.10;;;;;;;7.37;73.02;100717.98;110381;1277;22852;-63
2023/05/05 03:25:10;;;;;;;25.50;8.50;;;;;;;7.35;73.05;100716.81;110363;1277;22966;-61
2023/05/05 03:27:41;;;;;;;25.40;9.10;;;;;;;7.36;72.95;100719.83;107555;1273;25405;-61
2023/05/05 03:30:14;;;;;;;23.20;9.00;;;;;;;7.38;72.79;100721.84;106904;1270;22574;-59
2023/05/05 03:32:45;;;;;;;23.20;9.40;;;;;;;7.39;72.80;100726.80;110348;1270;22159;-60
2023/05/05 03:35:16;;;;;;;26.30;10.00;;;;;;;7.40;72.94;100730.73;110349;1270;22317;-61
2023/05/05 03:37:47;;;;;;;23.70;9.50;;;;;;;7.41;73.06;100733.34;110347;1269;22352;-61
2023/05/05 03:40:18;;;;;;;24.20;9.30;;;;;;;7.41;73.37;100727.73;110323;1277;22243;-60
2023/05/05 03:42:48;;;;;;;27.00;10.30;;;;;;;7.42;73.32;100726.61;110361;1262;22239;-62
2023/05/05 03:45:19;;;;;;;30.40;10.70;;;;;;;7.42;73.39;100724.88;110360;1273;22926;-60
2023/05/05 03:47:50;;;;;;;24.20;9.40;;;;;;;7.41;73.53;100730.15;110274;1273;22230;-61
2023/05/05 03:50:23;;;;;;;25.00;10.50;;;;;;;7.40;73.62;100731.19;110378;1271;22160;-60
2023/05/05 03:52:53;;;;;;;27.70;9.80;;;;;;;7.39;73.68;100733.70;110281;1270;22181;-60
2023/05/05 03:55:24;;;;;;;24.30;9.80;;;;;;;7.38;73.63;100730.15;110350;1277;22229;-61
2023/05/05 03:57:55;;;;;;;27.00;11.00;;;;;;;7.39;73.64;100729.17;110336;1267;22407;-59
2023/05/05 04:00:26;;;;;;;27.30;10.10;;;;;;;7.40;73.74;100726.45;110338;1272;23226;-62
2023/05/05 04:02:57;;;;;;;27.30;10.30;;;;;;;7.41;73.83;100725.61;110376;1274;22209;-61
2023/05/05 04:05:28;;;;;;;29.30;10.90;;;;;;;7.41;74.00;100727.59;110334;1273;22161;-61
2023/05/05 04:07:59;;;;;;;25.50;9.80;;;;;;;7.42;74.07;100726.77;110356;1269;22201;-61
2023/05/05 04:10:29;;;;;;;32.20;10.90;;;;;;;7.42;74.14;100727.23;110362;1277;22161;-62
2023/05/05 04:13:00;;;;;;;24.10;10.00;;;;;;;7.44;74.14;100725.44;110357;1273;23072;-60
2023/05/05 04:15:31;;;;;;;29.20;9.80;;;;;;;7.46;74.20;100728.95;110332;1269;23003;-61
2023/05/05 04:18:02;;;;;;;23.90;9.40;;;;;;;7.48;74.23;100723.34;110309;1271;22215;-62
2023/05/05 04:20:34;;;;;;;26.20;9.90;;;;;;;7.49;74.20;100730.36;110289;1270;22623;-61
2023/05/05 04:23:05;;;;;;;24.40;9.80;;;;;;;7.49;74.36;100732.23;110308;1271;22209;-62
2023/05/05 04:25:37;;;;;;;24.40;10.80;;;;;;;7.50;74.46;100730.41;110340;1271;22817;-63
2023/05/05 04:28:09;;;;;;;23.90;10.00;;;;;;;7.50;74.64;100734.04;110326;1274;22365;-62
2023/05/05 04:30:40;;;;;;;24.10;9.00;;;;;;;7.50;74.55;100722.84;110288;1273;22249;-63
2023/05/05 04:33:11;;;;;;;21.60;8.60;;;;;;;7.51;74.48;100725.63;110316;1270;23056;-62
2023/05/05 04:35:42;;;;;;;24.80;9.50;;;;;;;7.52;74.45;100723.69;110303;1271;22361;-62
2023/05/05 04:38:13;;;;;;;27.90;9.90;;;;;;;7.53;74.49;100726.35;110327;1263;23322;-62
2023/05/05 04:40:43;;;;;;;24.50;9.30;;;;;;;7.53;74.73;100731.09;110324;1262;22367;-63
2023/05/05 04:43:14;;;;;;;30.00;9.70;;;;;;;7.54;74.86;100733.51;110285;1270;23010;-62
2023/05/05 04:45:53;;;;;;;27.20;10.80;;;;;;;7.58;74.82;100736.81;110296;1262;22373;-62
2023/05/05 04:48:24;;;;;;;23.70;9.30;;;;;;;7.60;75.10;100739.77;110316;1267;22770;-62
2023/05/05 04:50:55;;;;;;;24.50;9.70;;;;;;;7.63;75.01;100745.38;110322;1270;22122;-63
2023/05/05 04:53:26;;;;;;;25.30;9.10;;;;;;;7.67;74.94;100748.56;110320;1265;23063;-62
2023/05/05 04:55:57;;;;;;;28.70;10.30;;;;;;;7.74;74.88;100754.62;110312;1269;22154;-63
2023/05/05 04:58:27;;;;;;;23.70;9.50;;;;;;;7.82;75.18;100756.71;110331;1277;22495;-63
2023/05/05 05:00:58;;;;;;;27.30;10.30;;;;;;;7.92;75.25;100759.63;110344;1270;23515;-63
2023/05/05 05:03:30;;;;;;;28.50;10.40;;;;;;;8.02;75.49;100754.94;110317;1270;22183;-62
2023/05/05 05:06:01;;;;;;;32.60;11.30;;;;;;;8.13;75.63;100757.42;110334;1266;23431;-62
2023/05/05 05:08:32;;;;;;;29.40;10.70;;;;;;;8.26;75.67;100759.05;110308;1270;22305;-61
2023/05/05 05:11:03;;;;;;;30.20;10.60;;;;;;;8.39;75.62;100756.67;110311;1262;22206;-63
2023/05/05 05:13:33;;;;;;;21.50;8.00;;;;;;;8.55;75.66;100757.39;110253;1277;22350;-63
2023/05/05 05:16:05;;;;;;;27.40;9.60;;;;;;;8.71;75.77;100757.65;110291;1277;23111;-63
2023/05/05 05:18:36;;;;;;;25.40;8.90;;;;;;;8.87;75.75;100758.81;110313;1269;22300;-63
2023/05/05 05:21:07;;;;;;;22.90;9.10;;;;;;;9.04;75.63;100763.20;110311;1269;22204;-63
2023/05/05 05:23:38;;;;;;;25.30;9.40;;;;;;;9.19;75.62;100756.02;110321;1273;23346;-62
2023/05/05 05:26:09;;;;;;;26.20;9.90;;;;;;;9.33;75.50;100759.36;110339;1272;22217;-63
2023/05/05 05:28:41;;;;;;;25.10;9.10;;;;;;;9.46;75.32;100761.77;110294;1270;22307;-63
2023/05/05 05:31:12;;;;;;;24.00;9.10;;;;;;;9.61;75.16;100760.73;106477;1277;25413;-62
2023/05/05 05:33:42;;;;;;;28.40;10.20;;;;;;;9.77;75.07;100759.95;106408;1277;23019;-61
2023/05/05 05:36:14;;;;;;;21.50;9.60;;;;;;;9.92;75.23;100764.03;106288;1278;22647;-62
2023/05/05 05:38:45;;;;;;;26.60;9.00;;;;;;;10.06;75.06;100760.71;110284;1272;22168;-63
2023/05/05 05:41:16;;;;;;;25.90;9.60;;;;;;;10.20;74.72;100764.28;110312;1274;22141;-63
2023/05/05 05:43:47;;;;;;;27.40;10.10;;;;;;;10.33;74.62;100774.41;110310;1277;22312;-63
2023/05/05 05:46:18;;;;;;;19.50;8.40;;;;;;;10.46;73.94;100775.65;110297;1277;22150;-62
2023/05/05 05:48:48;;;;;;;28.60;9.50;;;;;;;10.58;73.73;100772.25;110347;1274;22289;-63
2023/05/05 05:51:19;;;;;;;26.50;9.60;;;;;;;10.73;73.93;100775.32;110278;1270;22355;-63
2023/05/05 05:53:50;;;;;;;24.90;8.40;;;;;;;10.88;73.55;100776.48;110281;1273;22218;-62
2023/05/05 05:56:21;;;;;;;19.30;8.30;;;;;;;11.00;73.33;100780.55;110308;1275;22159;-63
2023/05/05 05:58:52;;;;;;;23.20;8.30;;;;;;;11.15;73.08;100781.73;110248;1270;22442;-63
2023/05/05 06:01:23;;;;;;;22.00;7.90;;;;;;;11.27;72.82;100781.56;110327;1277;22173;-63
2023/05/05 06:03:54;;;;;;;20.10;8.20;;;;;;;11.39;72.45;100779.77;110290;1273;22216;-63
2023/05/05 06:06:26;;;;;;;17.90;7.30;;;;;;;11.49;72.03;100783.98;110321;1273;22158;-63
2023/05/05 06:08:57;;;;;;;25.00;7.40;;;;;;;11.58;71.56;100779.11;110311;1269;22677;-63
2023/05/05 06:11:28;;;;;;;17.70;7.60;;;;;;;11.65;71.42;100778.69;110288;1270;22199;-63
2023/05/05 06:13:59;;;;;;;19.60;7.20;;;;;;;11.71;71.22;100778.18;110327;1270;22204;-63
2023/05/05 06:16:30;;;;;;;18.90;6.70;;;;;;;11.78;70.99;100785.01;110342;1271;22410;-63
2023/05/05 06:19:01;;;;;;;20.30;7.00;;;;;;;11.86;70.78;100781.42;110291;1268;22144;-62
2023/05/05 06:21:31;;;;;;;18.60;7.40;;;;;;;11.95;70.82;100786.57;110317;1269;22328;-63
2023/05/05 06:24:02;;;;;;;20.10;7.80;;;;;;;12.06;70.72;100784.73;108454;1267;25073;-63
2023/05/05 06:26:33;;;;;;;22.30;7.40;;;;;;;12.19;70.39;100782.24;106381;1269;22536;-63
2023/05/05 06:29:05;;;;;;;18.10;7.20;;;;;;;12.31;69.99;100778.92;106377;1273;22519;-63
2023/05/05 06:31:36;;;;;;;22.60;7.10;;;;;;;12.42;70.00;100777.86;106356;1277;22710;-63
2023/05/05 06:34:07;;;;;;;20.60;7.50;;;;;;;12.53;69.52;100783.81;106299;1268;22655;-63
2023/05/05 06:36:38;;;;;;;22.90;8.00;;;;;;;12.62;69.06;100783.02;106260;1277;22734;-61
2023/05/05 06:39:09;;;;;;;18.80;7.50;;;;;;;12.72;68.88;100781.92;107158;1277;24265;-62
2023/05/05 06:41:41;;;;;;;24.30;8.00;;;;;;;12.82;68.59;100780.76;106452;1272;24401;-62
2023/05/05 06:44:12;;;;;;;19.60;6.90;;;;;;;12.92;68.60;100781.08;106498;1277;22614;-62
2023/05/05 06:46:43;;;;;;;20.10;6.80;;;;;;;13.03;68.28;100777.58;106302;1277;24388;-63
2023/05/05 06:49:14;;;;;;;20.50;7.70;;;;;;;13.14;68.04;100782.05;110347;1273;22226;-63
2023/05/05 06:51:45;;;;;;;21.00;7.30;;;;;;;13.21;67.60;100781.92;110298;1272;22493;-63
2023/05/05 06:54:16;;;;;;;16.60;6.10;;;;;;;13.31;67.32;100780.10;110340;1270;22962;-62
2023/05/05 06:56:47;;;;;;;18.10;6.70;;;;;;;13.45;67.20;100783.29;110317;1269;22943;-63
2023/05/05 06:59:18;;;;;;;18.80;6.10;;;;;;;13.53;66.66;100783.66;110317;1274;22192;-63
2023/05/05 07:01:49;;;;;;;17.90;7.10;;;;;;;13.62;66.84;100785.09;110330;1270;22432;-63
2023/05/05 07:04:21;;;;;;;17.50;5.70;;;;;;;13.73;66.46;100786.63;110340;1277;22204;-62
2023/05/05 07:06:53;;;;;;;17.80;5.80;;;;;;;13.82;65.81;100786.60;110302;1270;22237;-62
2023/05/05 07:09:25;;;;;;;17.10;5.90;;;;;;;13.88;65.59;100790.96;110339;1266;22249;-62
2023/05/05 07:11:55;;;;;;;15.50;6.10;;;;;;;13.95;65.47;100791.70;110263;1267;22414;-62
2023/05/05 07:14:26;;;;;;;14.90;4.90;;;;;;;14.01;64.90;100790.70;109652;1262;22674;-62
2023/05/05 07:16:57;;;;;;;15.30;5.80;;;;;;;14.07;64.26;100788.48;106387;1272;22565;-60
2023/05/05 07:19:28;;;;;;;16.30;4.90;;;;;;;14.14;64.21;100784.86;106363;1272;25512;-61
2023/05/05 07:21:59;;;;;;;14.50;5.00;;;;;;;14.22;63.82;100781.90;106446;1277;26517;-61
2023/05/05 07:24:30;;;;;;;13.20;5.20;;;;;;;14.30;63.76;100782.59;106351;1270;22576;-60
2023/05/05 07:27:01;;;;;;;15.70;4.70;;;;;;;14.40;63.30;100782.10;106532;1275;22601;-61
2023/05/05 07:29:32;;;;;;;13.70;4.20;;;;;;;14.47;63.06;100779.99;106371;1257;24265;-61
2023/05/05 07:32:03;;;;;;;16.00;4.30;;;;;;;14.55;62.61;100782.09;106333;1272;24397;-61
2023/05/05 07:34:36;;;;;;;15.60;4.60;;;;;;;14.66;62.54;100783.88;108386;1272;24390;-61
2023/05/05 07:37:07;;;;;;;17.40;5.50;;;;;;;14.81;62.43;100782.52;110287;1277;23355;-62
2023/05/05 07:39:38;;;;;;;12.40;4.30;;;;;;;14.93;61.88;100777.88;110274;1270;22328;-62
2023/05/05 07:42:10;;;;;;;13.30;5.20;;;;;;;15.03;61.44;100778.48;110266;1270;22784;-62
2023/05/05 07:44:40;;;;;;;15.00;3.70;;;;;;;15.10;60.72;100775.09;110294;1270;22435;-62
2023/05/05 07:47:11;;;;;;;16.20;5.60;;;;;;;15.18;60.93;100775.56;110282;1274;22396;-62
2023/05/05 07:49:42;;;;;;;13.70;4.40;;;;;;;15.26;60.41;100777.00;110328;1270;22641;-62
2023/05/05 07:52:13;;;;;;;15.80;4.80;;;;;;;15.33;59.98;100775.74;110315;1277;22408;-63
2023/05/05 07:54:45;;;;;;;20.70;4.90;;;;;;;15.43;59.75;100775.67;109685;1270;25377;-63
2023/05/05 07:57:16;;;;;;;13.60;4.80;;;;;;;15.50;59.44;100775.38;106395;1277;22563;-63
2023/05/05 07:59:47;;;;;;;15.00;4.30;;;;;;;15.58;59.23;100769.36;106216;1275;22775;-62
2023/05/05 08:02:18;;;;;;;11.10;3.80;;;;;;;15.68;58.24;100775.06;106452;1270;22521;-62
2023/05/05 08:04:49;;;;;;;14.10;3.30;;;;;;;15.75;58.03;100770.29;106562;1262;23910;-62
2023/05/05 08:07:20;;;;;;;13.20;3.70;;;;;;;15.80;57.72;100767.14;106301;1277;24398;-63
2023/05/05 08:09:51;;;;;;;14.00;3.80;;;;;;;15.83;56.86;100763.48;106322;1270;22524;-62
2023/05/05 08:12:22;;;;;;;14.10;3.80;;;;;;;15.84;57.01;100769.98;106294;1263;22517;-63
2023/05/05 08:14:53;;;;;;;14.70;4.30;;;;;;;15.89;56.66;100764.20;106248;1270;22646;-63
2023/05/05 08:17:25;;;;;;;14.80;3.30;;;;;;;15.94;56.56;100763.75;106427;1270;22636;-61
2023/05/05 08:19:57;;;;;;;12.50;3.20;;;;;;;16.01;56.48;100765.39;106887;1276;22523;-63
2023/05/05 08:22:28;;;;;;;11.70;3.60;;;;;;;16.09;56.35;100765.47;106397;1277;22585;-62
2023/05/05 08:24:58;;;;;;;12.80;3.40;;;;;;;16.13;56.01;100766.73;107487;1269;22544;-63
2023/05/05 08:27:30;;;;;;;11.70;3.60;;;;;;;16.20;55.70;100765.16;106477;1277;22524;-62
2023/05/05 08:30:01;;;;;;;10.50;3.20;;;;;;;16.27;55.08;100765.19;106448;1277;25407;-63
2023/05/05 08:32:33;;;;;;;10.50;2.70;;;;;;;16.32;55.12;100766.02;106407;1269;22522;-62
2023/05/05 08:35:05;;;;;;;12.40;3.30;;;;;;;16.41;54.73;100764.99;110277;1270;22190;-63
2023/05/05 08:37:36;;;;;;;13.40;2.60;;;;;;;16.49;54.56;100771.14;106492;1269;22551;-63
2023/05/05 08:40:11;;;;;;;7.60;2.30;;;;;;;16.58;54.31;100762.55;106438;1277;22753;-65
2023/05/05 08:42:43;;;;;;;10.80;3.60;;;;;;;16.70;54.08;100766.44;110282;1269;22172;-63
2023/05/05 08:45:14;;;;;;;8.90;2.70;;;;;;;16.78;53.20;100764.27;107036;1275;22532;-63
2023/05/05 08:47:45;;;;;;;9.60;1.90;;;;;;;16.80;52.44;100762.67;106413;1274;24266;-62
2023/05/05 08:50:19;;;;;;;7.00;2.00;;;;;;;16.84;52.20;100758.93;106363;1271;23751;-62
2023/05/05 08:52:53;;;;;;;10.10;1.90;;;;;;;16.88;51.71;100760.27;106349;1270;22572;-62
2023/05/05 08:55:26;;;;;;;14.60;2.30;;;;;;;16.98;51.91;100763.68;109947;1266;22576;-62
2023/05/05 08:58:00;;;;;;;10.90;2.40;;;;;;;17.09;51.35;100754.60;106459;1272;22775;-61
2023/05/05 09:00:31;;;;;;;7.90;1.70;;;;;;;17.19;50.66;100749.95;108146;1275;25500;-63
2023/05/05 09:03:03;;;;;;;7.50;1.60;;;;;;;17.30;50.14;100754.77;106372;1269;26052;-62
2023/05/05 09:05:35;;;;;;;6.50;1.50;;;;;;;17.36;49.69;100752.40;106417;1272;22526;-63
2023/05/05 09:08:10;;;;;;;6.20;1.60;;;;;;;17.49;49.52;100754.00;106406;1275;25297;-62
2023/05/05 09:10:43;;;;;;;6.60;1.40;;;;;;;17.64;48.98;100752.05;110294;1267;22352;-63
2023/05/05 09:13:14;;;;;;;8.80;1.70;;;;;;;17.70;48.51;100745.01;106916;1277;25389;-61
2023/05/05 09:15:45;;;;;;;11.10;1.60;;;;;;;17.78;48.06;100747.09;106400;1277;25375;-61
2023/05/05 09:18:16;;;;;;;7.90;1.30;;;;;;;17.84;47.38;100740.20;106345;1277;24342;-62
2023/05/05 09:20:47;;;;;;;7.80;1.50;;;;;;;17.89;47.45;100743.06;107608;1263;22636;-62
2023/05/05 09:23:20;;;;;;;8.40;1.40;;;;;;;17.98;47.38;100740.31;110142;1270;25391;-62
2023/05/05 09:26:11;;;;;;;11.60;1.50;;;;;;;18.10;47.09;100738.89;106229;1277;24236;-62
2023/05/05 09:28:54;;;;;;;9.60;1.40;;;;;;;18.17;46.19;100740.79;107832;1270;22538;-63
2023/05/05 09:31:26;;;;;;;9.20;1.70;;;;;;;18.23;45.29;100734.31;106327;1277;22517;-62
2023/05/05 09:33:59;;;;;;;6.90;1.40;;;;;;;18.33;45.04;100735.44;106347;1277;25659;-67
2023/05/05 09:36:47;;;;;;;6.80;1.00;;;;;;;18.48;45.24;100735.35;106347;1262;24274;-62
2023/05/05 09:39:20;;;;;;;10.80;1.50;;;;;;;18.63;45.07;100736.80;110105;1262;22595;-62
2023/05/05 09:41:51;;;;;;;5.30;1.20;;;;;;;18.68;44.20;100739.86;106212;1275;22726;-60
2023/05/05 09:44:35;;;;;;;4.90;1.10;;;;;;;18.72;43.58;100739.58;106324;1277;22531;-62
2023/05/05 09:47:06;;;;;;;10.50;1.30;;;;;;;18.80;43.47;100737.58;110286;1270;22161;-64
2023/05/05 09:49:37;;;;;;;6.00;1.20;;;;;;;18.86;42.94;100738.73;106459;1271;24375;-63
2023/05/05 09:52:15;;;;;;;6.00;1.30;;;;;;;18.84;42.80;100735.54;106378;1277;24660;-62
2023/05/05 09:54:53;;;;;;;4.00;0.90;;;;;;;18.91;43.10;100734.00;106222;1275;22643;-62
2023/05/05 09:57:32;;;;;;;4.20;1.20;;;;;;;19.02;42.68;100734.02;106688;1275;24386;-62
2023/05/05 10:00:05;;;;;;;6.70;1.30;;;;;;;19.09;42.44;100736.70;108849;1275;25177;-62
2023/05/05 10:02:38;;;;;;;6.40;1.30;;;;;;;19.15;42.43;100740.87;106401;1270;22528;-62
2023/05/05 10:05:11;;;;;;;5.70;1.20;;;;;;;19.23;42.61;100737.70;106950;1274;23890;-63
2023/05/05 10:07:47;;;;;;;6.30;1.40;;;;;;;19.27;42.13;100735.52;109393;1266;22546;-62
2023/05/05 10:10:19;;;;;;;6.70;1.20;;;;;;;19.27;41.40;100730.83;106914;1263;26561;-62
2023/05/05 10:12:53;;;;;;;7.60;1.50;;;;;;;19.27;41.16;100723.16;106400;1262;22707;-62
2023/05/05 10:15:24;;;;;;;5.20;1.30;;;;;;;19.31;41.44;100720.30;106367;1277;25569;-62
2023/05/05 10:17:59;;;;;;;5.30;1.00;;;;;;;19.35;41.09;100716.07;106362;1272;22547;-63
2023/05/05 10:20:35;;;;;;;5.80;1.30;;;;;;;19.45;40.93;100719.84;108229;1272;25252;-63
2023/05/05 10:23:08;;;;;;;3.90;1.30;;;;;;;19.52;40.43;100723.23;106366;1275;24271;-62
2023/05/05 10:25:44;;;;;;;5.50;1.30;;;;;;;19.53;40.48;100724.04;106442;1269;22614;-63
2023/05/05 10:28:23;;;;;;;5.70;1.40;;;;;;;19.56;40.73;100719.84;110259;1275;22173;-63
2023/05/05 10:30:56;;;;;;;6.20;1.20;;;;;;;19.64;40.34;100720.41;110269;1272;22322;-64
2023/05/05 10:33:35;;;;;;;9.40;1.40;;;;;;;19.73;40.46;100716.04;110263;1274;22171;-63
2023/05/05 10:36:07;;;;;;;3.40;0.90;;;;;;;19.88;40.25;100710.84;110292;1274;22333;-64
2023/05/05 10:38:39;;;;;;;4.10;1.00;;;;;;;19.99;40.04;100710.90;110265;1275;22208;-63
2023/05/05 10:41:11;;;;;;;4.30;1.00;;;;;;;20.08;39.77;100710.91;110227;1272;22260;-63
2023/05/05 10:43:43;;;;;;;7.90;1.10;;;;;;;20.09;39.43;100703.52;110287;1270;22344;-64
2023/05/05 10:46:15;;;;;;;4.70;1.10;;;;;;;20.11;39.26;100697.98;110254;1271;22657;-63
2023/05/05 10:48:51;;;;;;;4.90;1.00;;;;;;;20.13;39.17;100695.94;110269;1270;22287;-64
2023/05/05 10:51:29;;;;;;;8.60;1.20;;;;;;;20.16;39.19;100702.40;110253;1275;22149;-63
2023/05/05 10:54:09;;;;;;;7.40;1.10;;;;;;;20.24;39.28;100703.26;110282;1277;22274;-63
2023/05/05 10:56:42;;;;;;;3.70;1.00;;;;;;;20.29;38.82;100700.15;110318;1271;22193;-63
2023/05/05 10:59:41;;;;;;;6.50;1.00;;;;;;;20.32;38.75;100697.80;110311;1274;22258;-63
2023/05/05 11:02:26;;;;;;;8.20;1.00;;;;;;;20.35;38.22;100698.58;109863;1279;22189;-63
2023/05/05 11:05:16;;;;;;;5.90;0.90;;;;;;;20.37;37.30;100694.11;109848;1276;22924;-65
2023/05/05 11:07:49;;;;;;;4.70;1.40;;;;;;;20.30;37.32;100693.80;109857;1276;22314;-63
2023/05/05 11:10:22;;;;;;;6.40;0.80;;;;;;;20.27;37.20;100684.77;109899;1283;22233;-63
2023/05/05 11:13:22;;;;;;;7.60;1.00;;;;;;;20.27;37.21;100687.55;109892;1268;22179;-63
2023/05/05 11:15:54;;;;;;;6.60;1.00;;;;;;;20.27;37.01;100685.18;109870;1279;22223;-63
2023/05/05 11:18:36;;;;;;;4.30;0.90;;;;;;;20.29;37.22;100687.41;109878;1276;23010;-63
2023/05/05 11:21:15;;;;;;;7.60;0.90;;;;;;;20.32;37.16;100683.04;109874;1280;22248;-62
2023/05/05 11:23:48;;;;;;;5.60;0.80;;;;;;;20.34;36.77;100678.79;109877;1279;22864;-62
2023/05/05 11:26:51;;;;;;;4.10;0.80;;;;;;;20.39;37.13;100679.13;105761;1276;5418387;-62
2023/05/05 11:29:22;;;;;;;3.30;0.80;;;;;;;20.44;35.99;100680.50;109877;1279;22282;-62
2023/05/05 11:32:14;;;;;;;9.40;1.00;;;;;;;20.38;36.36;100677.65;109877;1276;22164;-62
2023/05/05 11:34:52;;;;;;;3.90;1.00;;;;;;;20.34;35.96;100667.66;107408;1267;22704;-62
2023/05/05 11:37:27;;;;;;;6.80;1.10;;;;;;;20.30;36.07;100668.84;105997;1279;22962;-62
2023/05/05 11:40:10;;;;;;;3.90;1.00;;;;;;;20.29;35.65;100664.44;110109;1277;22227;-62
2023/05/05 11:42:41;;;;;;;5.00;0.90;;;;;;;20.14;35.68;100657.86;110290;1270;23130;-62